Time;durP1;ratioP1;P1;durP2;ratioP2;P2;SDS_P1;SDS_P2;PMS_P1;PMS_P2;Temp;Humidity;BMP_temperature;BMP_pressure;BME280_temperature;BME280_humidity;BME280_pressure;Samples;Min_cycle;Max_cycle;Signal;HPM_P1;HPM_P2
2022/03/29 00:00:36;;;;;;;47.45;20.20;;;11.10;40.20;;;;;;4979906;28;20391;-75
2022/03/29 00:03:02;;;;;;;45.88;21.02;;;11.00;40.90;;;;;;4995126;28;20473;-75
2022/03/29 00:05:28;;;;;;;44.10;19.70;;;10.80;41.30;;;;;;5001979;28;20395;-75
2022/03/29 00:07:54;;;;;;;51.13;21.03;;;10.90;41.20;;;;;;4981932;28;20422;-75
2022/03/29 00:10:19;;;;;;;46.95;20.27;;;10.90;41.30;;;;;;4994893;28;20450;-75
2022/03/29 00:12:45;;;;;;;44.63;21.10;;;10.90;41.20;;;;;;4994057;28;20484;-74
2022/03/29 00:15:11;;;;;;;43.40;20.10;;;10.90;41.50;;;;;;4996126;28;20394;-77
2022/03/29 00:17:37;;;;;;;45.75;20.58;;;10.90;40.70;;;;;;4994824;28;20455;-76
2022/03/29 00:20:03;;;;;;;45.88;20.50;;;10.90;40.40;;;;;;4994167;28;20390;-76
2022/03/29 00:22:29;;;;;;;41.00;19.70;;;10.90;40.30;;;;;;4993882;28;20429;-76
2022/03/29 00:24:55;;;;;;;44.55;20.13;;;10.90;40.40;;;;;;4997469;28;20383;-75
2022/03/29 00:27:21;;;;;;;43.45;21.00;;;10.80;40.80;;;;;;5000023;28;20857;-76
2022/03/29 00:29:47;;;;;;;46.22;20.50;;;10.80;41.30;;;;;;4993917;28;20477;-76
2022/03/29 00:32:13;;;;;;;48.13;20.33;;;10.80;41.60;;;;;;4993369;28;20408;-76
2022/03/29 00:34:40;;;;;;;49.20;21.33;;;10.70;41.90;;;;;;4993418;28;20394;-76
2022/03/29 00:37:06;;;;;;;44.72;20.92;;;10.70;42.10;;;;;;4993253;28;20398;-76
2022/03/29 00:39:32;;;;;;;46.47;20.67;;;10.60;42.50;;;;;;4993777;28;20389;-76
2022/03/29 00:42:00;;;;;;;45.13;21.45;;;10.60;42.70;;;;;;4993332;28;20485;-80
2022/03/29 00:44:33;;;;;;;48.45;22.33;;;10.70;42.70;;;;;;4976267;28;20391;-76
2022/03/29 00:47:00;;;;;;;47.20;19.60;;;10.60;42.70;;;;;;4992945;28;20475;-76
2022/03/29 00:49:26;;;;;;;45.10;20.98;;;10.60;43.50;;;;;;4975702;28;20466;-76
2022/03/29 00:52:00;;;;;;;48.70;21.33;;;10.40;44.20;;;;;;4975529;28;20418;-76
2022/03/29 00:54:32;;;;;;;46.75;21.38;;;10.50;44.30;;;;;;4994028;28;20433;-76
2022/03/29 00:56:58;;;;;;;44.42;21.30;;;10.40;44.70;;;;;;4976094;28;20503;-77
2022/03/29 00:59:26;;;;;;;55.08;22.67;;;10.10;46.70;;;;;;4993741;28;20399;-76
2022/03/29 01:01:52;;;;;;;41.17;21.15;;;10.00;47.50;;;;;;4993049;28;20477;-76
2022/03/29 01:04:17;;;;;;;45.10;22.38;;;9.90;48.90;;;;;;4994307;28;20401;-76
2022/03/29 01:06:44;;;;;;;50.17;24.98;;;9.70;50.10;;;;;;4993308;28;20390;-77
2022/03/29 01:09:11;;;;;;;46.08;22.15;;;9.60;51.20;;;;;;4993534;28;20394;-77
2022/03/29 01:11:38;;;;;;;42.13;21.47;;;9.60;52.50;;;;;;4992794;28;20416;-76
2022/03/29 01:14:04;;;;;;;47.47;22.23;;;9.70;51.80;;;;;;4994065;28;20430;-76
2022/03/29 01:19:19;;;;;;;40.58;21.42;;;10.30;46.60;;;;;;4994638;28;20409;-76
2022/03/29 01:22:11;;;;;;;48.42;22.73;;;10.40;45.90;;;;;;4998752;28;20386;-75
2022/03/29 01:24:41;;;;;;;45.03;21.42;;;10.50;44.10;;;;;;4999705;28;20722;-74
2022/03/29 01:27:07;;;;;;;43.78;21.60;;;10.60;44.00;;;;;;5001708;28;20398;-76
2022/03/29 01:29:35;;;;;;;40.80;22.02;;;10.40;44.20;;;;;;5000690;28;20698;-76
2022/03/29 01:32:07;;;;;;;43.60;22.40;;;10.10;46.30;;;;;;4995747;28;20418;-76
2022/03/29 01:34:37;;;;;;;47.92;22.40;;;10.10;48.00;;;;;;4995066;28;20433;-76
2022/03/29 01:37:04;;;;;;;45.45;23.00;;;10.30;45.30;;;;;;4992845;28;20382;-76
2022/03/29 01:39:30;;;;;;;43.17;22.65;;;10.40;44.90;;;;;;4975059;28;20384;-76
2022/03/29 01:41:56;;;;;;;43.03;21.80;;;10.40;44.30;;;;;;4992617;28;20394;-76
2022/03/29 01:44:21;;;;;;;48.83;22.67;;;10.50;44.10;;;;;;4992791;28;20394;-76
2022/03/29 01:46:49;;;;;;;42.87;21.60;;;10.60;42.40;;;;;;4975182;28;20816;-76
2022/03/29 01:49:15;;;;;;;42.80;21.90;;;10.50;43.10;;;;;;4992297;28;20401;-76
2022/03/29 01:51:40;;;;;;;43.80;22.73;;;10.40;44.20;;;;;;4992288;28;20411;-76
2022/03/29 01:54:06;;;;;;;46.03;23.23;;;10.50;43.10;;;;;;4992126;28;20436;-76
2022/03/29 01:56:34;;;;;;;41.00;21.87;;;10.60;42.30;;;;;;4992440;28;20430;-76
2022/03/29 01:59:04;;;;;;;42.05;22.20;;;10.30;44.80;;;;;;4977098;28;20391;-76
2022/03/29 02:01:29;;;;;;;44.10;23.35;;;10.20;45.30;;;;;;4979202;28;20397;-76
2022/03/29 02:03:55;;;;;;;40.85;21.20;;;10.20;46.30;;;;;;4979384;28;20391;-76
2022/03/29 02:06:21;;;;;;;43.88;22.65;;;10.40;43.20;;;;;;4997532;28;20421;-76
2022/03/29 02:08:47;;;;;;;48.45;23.13;;;10.60;42.40;;;;;;4997685;28;20879;-76
2022/03/29 02:11:13;;;;;;;43.90;22.88;;;10.60;43.10;;;;;;4996684;28;20406;-76
2022/03/29 02:13:39;;;;;;;46.20;22.80;;;10.50;43.10;;;;;;4996520;28;20390;-76
2022/03/29 02:16:05;;;;;;;42.40;23.38;;;10.40;43.60;;;;;;4996480;28;20390;-77
2022/03/29 02:18:31;;;;;;;47.13;22.98;;;10.30;44.30;;;;;;4996796;28;20411;-77
2022/03/29 02:20:56;;;;;;;39.28;22.23;;;10.30;44.90;;;;;;4995919;28;20398;-76
2022/03/29 02:23:22;;;;;;;44.73;22.30;;;10.30;45.30;;;;;;4996928;28;20863;-77
2022/03/29 02:25:48;;;;;;;40.75;21.63;;;10.20;45.90;;;;;;4997745;28;20788;-76
2022/03/29 02:28:14;;;;;;;45.30;22.67;;;10.30;44.80;;;;;;5001570;28;20730;-76
2022/03/29 02:30:40;;;;;;;43.23;22.63;;;10.40;44.00;;;;;;4996487;28;20926;-76
2022/03/29 02:33:06;;;;;;;47.60;23.10;;;10.30;44.70;;;;;;4996229;28;20418;-76
2022/03/29 02:35:32;;;;;;;44.33;22.83;;;10.30;44.60;;;;;;4996430;28;20497;-76
2022/03/29 02:37:59;;;;;;;45.47;23.33;;;10.20;44.80;;;;;;4978785;28;20485;-76
2022/03/29 02:40:25;;;;;;;45.53;22.77;;;10.20;45.50;;;;;;4996452;28;20432;-76
2022/03/29 02:42:52;;;;;;;49.50;22.38;;;10.10;46.30;;;;;;4996777;28;20800;-76
2022/03/29 02:45:20;;;;;;;46.65;22.08;;;10.10;47.20;;;;;;5001747;28;20525;-75
2022/03/29 02:47:48;;;;;;;48.65;23.33;;;10.00;48.00;;;;;;5004407;28;20879;-76
2022/03/29 02:50:15;;;;;;;43.58;22.88;;;10.00;48.80;;;;;;5000074;28;20541;-75
2022/03/29 02:52:44;;;;;;;44.03;23.10;;;9.90;50.10;;;;;;5001447;28;20406;-76
2022/03/29 02:55:11;;;;;;;42.03;22.02;;;9.90;50.70;;;;;;4997136;28;20389;-76
2022/03/29 02:57:36;;;;;;;48.90;23.63;;;9.90;51.80;;;;;;4985008;28;20385;-76
2022/03/29 03:00:05;;;;;;;41.28;21.70;;;9.90;51.60;;;;;;5000688;28;20800;-76
2022/03/29 03:02:32;;;;;;;49.88;24.48;;;10.00;50.60;;;;;;4997682;28;20390;-77
2022/03/29 03:04:59;;;;;;;42.60;23.77;;;9.90;49.70;;;;;;4998611;28;20394;-77
2022/03/29 03:07:24;;;;;;;42.95;23.77;;;9.90;49.30;;;;;;4997323;28;20391;-76
2022/03/29 03:09:50;;;;;;;46.05;22.83;;;10.10;47.60;;;;;;4978123;28;20395;-76
2022/03/29 03:12:15;;;;;;;52.37;24.83;;;10.10;47.70;;;;;;4996528;28;20406;-77
2022/03/29 03:14:41;;;;;;;48.75;24.27;;;10.10;46.90;;;;;;4995746;28;20392;-76
2022/03/29 03:17:06;;;;;;;45.40;23.88;;;10.10;47.20;;;;;;4995832;28;20387;-76
2022/03/29 03:19:32;;;;;;;45.20;24.33;;;10.20;46.30;;;;;;4995851;28;20477;-76
2022/03/29 03:21:58;;;;;;;49.03;23.50;;;10.20;45.90;;;;;;4996141;28;21232;-76
2022/03/29 03:24:23;;;;;;;46.17;23.42;;;10.20;46.00;;;;;;4996649;28;20390;-76
2022/03/29 03:26:49;;;;;;;45.57;25.63;;;10.10;46.50;;;;;;4997674;28;20486;-75
2022/03/29 03:29:14;;;;;;;52.93;26.30;;;10.10;46.80;;;;;;4997227;28;20430;-76
2022/03/29 03:31:40;;;;;;;46.90;26.23;;;10.00;47.30;;;;;;4997233;28;20477;-76
2022/03/29 03:34:05;;;;;;;52.70;26.90;;;10.00;48.00;;;;;;4997082;28;20396;-76
2022/03/29 03:36:31;;;;;;;45.40;25.60;;;10.00;47.20;;;;;;4996567;28;20868;-75
2022/03/29 03:38:56;;;;;;;50.43;26.53;;;10.00;47.80;;;;;;4977119;28;20405;-75
2022/03/29 03:41:22;;;;;;;51.77;26.13;;;10.00;47.90;;;;;;4994659;28;20555;-76
2022/03/29 03:43:48;;;;;;;48.17;26.57;;;10.00;48.20;;;;;;4994670;28;20483;-76
2022/03/29 03:46:13;;;;;;;52.72;27.23;;;9.90;48.70;;;;;;4994333;28;20890;-74
2022/03/29 03:48:39;;;;;;;54.13;27.40;;;9.90;48.80;;;;;;4994853;28;20386;-76
2022/03/29 03:51:04;;;;;;;52.17;26.60;;;9.80;49.70;;;;;;4994246;28;20415;-77
2022/03/29 03:53:30;;;;;;;51.20;27.07;;;9.80;49.50;;;;;;4994701;28;20398;-76
2022/03/29 03:55:56;;;;;;;51.87;27.27;;;9.80;50.50;;;;;;4994533;28;20756;-75
2022/03/29 03:58:21;;;;;;;53.70;28.87;;;9.70;50.70;;;;;;4995002;28;20433;-76
2022/03/29 04:00:47;;;;;;;52.93;28.57;;;9.90;48.10;;;;;;4994362;28;20395;-75
2022/03/29 04:03:13;;;;;;;57.40;31.10;;;10.00;47.30;;;;;;4994425;28;20418;-76
2022/03/29 04:05:38;;;;;;;57.97;30.10;;;10.10;46.50;;;;;;4995052;28;20389;-76
2022/03/29 04:08:04;;;;;;;47.07;27.07;;;10.10;46.20;;;;;;4994807;28;20387;-76
2022/03/29 04:10:31;;;;;;;50.70;27.75;;;10.10;46.90;;;;;;4995026;28;20395;-76
2022/03/29 04:12:56;;;;;;;53.95;28.77;;;10.00;48.30;;;;;;4977296;28;20417;-75
2022/03/29 04:15:22;;;;;;;51.40;26.77;;;10.00;47.90;;;;;;4977224;28;20387;-76
2022/03/29 04:17:47;;;;;;;52.03;27.50;;;10.10;47.40;;;;;;4994220;28;20460;-75
2022/03/29 04:20:13;;;;;;;54.63;28.93;;;10.00;47.40;;;;;;4996234;28;20418;-77
2022/03/29 04:22:38;;;;;;;53.23;28.60;;;10.00;47.90;;;;;;4994815;28;20422;-75
2022/03/29 04:25:05;;;;;;;53.03;28.85;;;9.90;48.20;;;;;;4996368;28;20390;-76
2022/03/29 04:27:30;;;;;;;52.13;29.23;;;9.80;49.30;;;;;;4998193;28;20410;-75
2022/03/29 04:29:56;;;;;;;53.05;28.85;;;9.90;48.90;;;;;;4981728;28;20391;-75
2022/03/29 04:32:22;;;;;;;58.28;29.05;;;9.90;49.00;;;;;;4993852;28;20635;-75
2022/03/29 04:34:48;;;;;;;59.75;28.13;;;9.90;48.60;;;;;;4993407;28;20391;-76
2022/03/29 04:37:14;;;;;;;51.50;29.80;;;9.90;49.60;;;;;;4993680;28;20390;-76
2022/03/29 04:39:39;;;;;;;57.30;30.05;;;9.60;51.50;;;;;;4993485;28;20890;-75
2022/03/29 04:42:06;;;;;;;56.50;30.25;;;9.60;51.90;;;;;;4993474;28;20383;-75
2022/03/29 04:44:34;;;;;;;56.20;30.42;;;9.60;51.80;;;;;;4993486;28;20390;-76
2022/03/29 04:47:00;;;;;;;56.50;30.98;;;9.60;51.90;;;;;;4976112;28;20445;-76
2022/03/29 04:49:25;;;;;;;57.55;29.67;;;9.50;52.50;;;;;;4993921;28;20398;-75
2022/03/29 04:51:51;;;;;;;57.77;30.20;;;9.70;51.30;;;;;;4993569;28;20418;-76
2022/03/29 04:54:17;;;;;;;60.30;30.53;;;9.90;48.80;;;;;;4977336;28;20387;-76
2022/03/29 04:56:42;;;;;;;55.17;28.70;;;10.00;47.90;;;;;;4994854;28;20390;-76
2022/03/29 04:59:08;;;;;;;59.43;30.17;;;9.90;48.50;;;;;;4995120;28;20383;-76
2022/03/29 05:01:36;;;;;;;55.77;29.93;;;9.80;49.90;;;;;;4994927;28;20458;-75
2022/03/29 05:04:02;;;;;;;64.43;31.45;;;9.60;51.30;;;;;;4995364;28;20856;-75
2022/03/29 05:06:28;;;;;;;60.87;31.80;;;9.70;50.10;;;;;;4994757;28;20390;-76
2022/03/29 05:08:54;;;;;;;64.70;32.27;;;9.60;51.30;;;;;;4993821;28;20449;-76
2022/03/29 05:11:19;;;;;;;59.40;30.63;;;9.50;52.30;;;;;;4977788;28;20411;-78
2022/03/29 05:13:45;;;;;;;56.08;30.85;;;9.60;51.60;;;;;;4997915;28;20443;-76
2022/03/29 05:16:11;;;;;;;58.42;32.38;;;9.70;50.70;;;;;;4993590;28;20488;-76
2022/03/29 05:18:36;;;;;;;63.67;30.92;;;9.40;52.80;;;;;;4993708;28;20387;-75
2022/03/29 05:21:02;;;;;;;58.42;31.58;;;9.40;53.00;;;;;;4993824;28;20389;-76
2022/03/29 05:23:28;;;;;;;63.28;31.90;;;9.50;52.50;;;;;;4994509;28;20449;-76
2022/03/29 05:25:53;;;;;;;54.97;31.23;;;9.60;51.40;;;;;;4999005;28;20383;-76
2022/03/29 05:28:19;;;;;;;57.00;31.75;;;9.60;50.90;;;;;;4997139;28;20429;-76
2022/03/29 05:30:44;;;;;;;60.08;31.95;;;9.60;51.30;;;;;;4992769;28;20397;-76
2022/03/29 05:33:15;;;;;;;61.50;33.25;;;9.60;51.60;;;;;;4992494;28;20934;-76
2022/03/29 05:35:41;;;;;;;64.63;32.72;;;9.60;51.40;;;;;;4993773;28;20415;-75
2022/03/29 05:38:07;;;;;;;66.32;32.90;;;9.60;51.20;;;;;;4993320;28;20390;-75
2022/03/29 05:40:32;;;;;;;63.73;33.90;;;9.60;51.40;;;;;;4993329;28;20391;-74
2022/03/29 05:42:58;;;;;;;67.17;33.57;;;9.50;53.20;;;;;;4975775;28;20398;-76
2022/03/29 05:45:24;;;;;;;63.80;33.77;;;9.50;52.90;;;;;;4993317;28;20402;-75
2022/03/29 05:50:34;;;;;;;62.93;33.33;;;9.70;51.50;;;;;;4996884;28;20451;-76
2022/03/29 05:53:01;;;;;;;66.95;34.58;;;9.60;50.90;;;;;;4999461;28;20445;-74
2022/03/29 05:55:27;;;;;;;64.20;34.80;;;9.70;51.60;;;;;;4997696;28;20415;-75
2022/03/29 05:57:53;;;;;;;69.10;34.13;;;9.70;51.30;;;;;;5002404;28;20481;-76
2022/03/29 06:00:23;;;;;;;69.28;34.47;;;9.60;51.20;;;;;;5004159;28;20406;-76
2022/03/29 06:02:50;;;;;;;77.35;36.58;;;9.60;51.90;;;;;;4995544;28;20455;-76
2022/03/29 06:05:16;;;;;;;70.93;34.58;;;9.50;53.40;;;;;;4975996;28;20398;-75
2022/03/29 06:07:41;;;;;;;65.57;35.00;;;9.60;51.90;;;;;;4975985;28;20397;-76
2022/03/29 06:10:07;;;;;;;65.10;35.63;;;9.60;52.20;;;;;;4992676;28;20401;-76
2022/03/29 06:12:34;;;;;;;60.13;34.00;;;9.70;52.90;;;;;;4993052;28;20398;-76
2022/03/29 06:15:08;;;;;;;67.07;35.38;;;9.80;50.30;;;;;;4993139;28;20386;-76
2022/03/29 06:17:35;;;;;;;66.22;33.30;;;9.80;50.20;;;;;;4992351;28;20464;-75
2022/03/29 06:20:03;;;;;;;70.00;34.13;;;10.00;48.50;;;;;;4993867;28;20390;-76
2022/03/29 06:22:30;;;;;;;66.32;34.10;;;10.00;48.80;;;;;;4992757;28;20879;-76
2022/03/29 06:24:58;;;;;;;69.60;34.08;;;10.00;48.70;;;;;;4993700;28;20429;-76
2022/03/29 06:27:24;;;;;;;69.25;35.10;;;10.00;49.20;;;;;;4995466;28;20398;-76
2022/03/29 06:29:50;;;;;;;64.47;35.45;;;10.00;49.30;;;;;;5002660;28;20391;-76
2022/03/29 06:32:15;;;;;;;73.47;36.40;;;10.10;48.30;;;;;;4995919;28;20417;-76
2022/03/29 06:34:41;;;;;;;65.73;36.13;;;10.10;48.40;;;;;;4974774;28;20891;-76
2022/03/29 06:37:08;;;;;;;71.97;37.50;;;10.10;48.60;;;;;;4993555;28;20383;-75
2022/03/29 06:39:34;;;;;;;68.53;36.80;;;10.20;47.50;;;;;;4994908;28;20444;-76
2022/03/29 06:42:00;;;;;;;67.90;35.10;;;10.30;46.90;;;;;;4993889;28;20386;-76
2022/03/29 06:44:27;;;;;;;72.15;36.22;;;10.40;46.30;;;;;;4993850;28;20461;-76
2022/03/29 06:46:53;;;;;;;67.07;35.70;;;10.40;46.40;;;;;;4998552;28;20390;-75
2022/03/29 06:49:19;;;;;;;68.30;37.00;;;10.50;46.60;;;;;;4980143;28;20764;-78
2022/03/29 06:51:47;;;;;;;67.40;36.10;;;10.60;45.00;;;;;;4996161;28;20497;-77
2022/03/29 06:54:13;;;;;;;67.82;36.35;;;10.70;43.90;;;;;;4998004;28;20394;-77
2022/03/29 06:56:39;;;;;;;74.03;37.00;;;10.60;44.70;;;;;;4996081;28;20386;-77
2022/03/29 06:59:05;;;;;;;69.60;36.63;;;10.80;43.40;;;;;;4995782;28;20929;-76
2022/03/29 07:01:30;;;;;;;68.93;37.47;;;10.80;41.50;;;;;;4981874;28;20390;-77
2022/03/29 07:03:59;;;;;;;74.83;37.20;;;10.80;42.40;;;;;;4999843;28;20989;-76
2022/03/29 07:06:30;;;;;;;68.33;37.77;;;10.80;42.10;;;;;;4996615;28;20842;-75
2022/03/29 07:11:39;;;;;;;72.03;37.40;;;10.70;42.60;;;;;;4997014;28;20465;-76
2022/03/29 07:14:07;;;;;;;70.17;38.63;;;10.60;42.80;;;;;;4997895;28;20394;-76
2022/03/29 07:16:33;;;;;;;68.97;36.70;;;10.80;42.80;;;;;;4981058;28;20378;-77
2022/03/29 07:18:58;;;;;;;66.67;38.00;;;10.90;42.60;;;;;;4997745;28;20489;-75
2022/03/29 07:21:24;;;;;;;67.77;38.60;;;10.80;43.10;;;;;;4979525;28;20389;-76
2022/03/29 07:23:50;;;;;;;65.47;37.13;;;10.90;43.10;;;;;;4997314;28;20394;-77
2022/03/29 07:26:16;;;;;;;73.87;38.10;;;11.20;41.00;;;;;;4998022;28;20390;-77
2022/03/29 07:28:42;;;;;;;66.88;36.53;;;11.30;40.50;;;;;;4998106;28;20390;-75
2022/03/29 07:31:07;;;;;;;69.10;36.70;;;11.40;39.20;;;;;;4997214;28;20578;-77
2022/03/29 07:33:34;;;;;;;70.20;36.70;;;11.40;39.30;;;;;;4996780;28;20469;-76
2022/03/29 07:36:03;;;;;;;67.93;37.85;;;11.30;39.50;;;;;;4996770;28;20378;-77
2022/03/29 07:38:28;;;;;;;72.55;38.38;;;11.20;40.50;;;;;;4996992;28;20389;-77
2022/03/29 07:40:54;;;;;;;77.00;40.10;;;11.20;40.00;;;;;;4995367;28;20481;-76
2022/03/29 07:43:20;;;;;;;70.60;37.43;;;11.30;40.90;;;;;;4995876;28;20799;-75
2022/03/29 07:45:46;;;;;;;68.38;38.40;;;11.50;39.20;;;;;;4996552;28;20409;-77
2022/03/29 07:48:11;;;;;;;80.68;40.95;;;11.60;39.40;;;;;;4998932;28;20393;-78
2022/03/29 07:50:37;;;;;;;68.35;38.80;;;11.60;38.70;;;;;;4997083;28;20403;-76
2022/03/29 07:53:05;;;;;;;72.88;38.00;;;11.70;38.60;;;;;;4997180;28;20486;-77
2022/03/29 07:55:31;;;;;;;71.30;38.25;;;11.80;37.50;;;;;;4995847;28;20417;-75
2022/03/29 07:57:57;;;;;;;65.20;38.15;;;11.70;38.10;;;;;;4997266;28;20425;-76
2022/03/29 08:00:32;;;;;;;69.93;38.85;;;11.80;38.20;;;;;;4978135;28;20457;-76
2022/03/29 08:03:06;;;;;;;68.28;39.33;;;11.80;37.70;;;;;;4996208;28;20396;-76
2022/03/29 08:05:33;;;;;;;68.82;38.95;;;12.00;37.40;;;;;;4999000;28;20382;-76
2022/03/29 08:07:59;;;;;;;72.80;37.67;;;12.40;35.70;;;;;;5001964;28;20394;-76
2022/03/29 08:10:27;;;;;;;66.20;37.80;;;12.60;34.10;;;;;;4997528;28;20562;-76
2022/03/29 08:12:55;;;;;;;68.13;38.25;;;12.70;33.40;;;;;;4979062;28;20418;-78
2022/03/29 08:15:20;;;;;;;73.35;40.13;;;12.80;33.40;;;;;;4996407;28;20912;-76
2022/03/29 08:17:47;;;;;;;75.85;39.72;;;12.90;33.00;;;;;;4996973;28;20378;-77
2022/03/29 08:20:13;;;;;;;66.85;38.97;;;13.00;32.20;;;;;;4996424;28;20452;-76
2022/03/29 08:22:44;;;;;;;76.57;39.53;;;12.90;33.30;;;;;;4995560;28;20390;-76
2022/03/29 08:25:10;;;;;;;71.40;38.50;;;12.80;32.80;;;;;;4996071;28;20418;-75
2022/03/29 08:27:36;;;;;;;71.18;40.00;;;12.70;33.80;;;;;;4997261;28;20886;-77
2022/03/29 08:30:02;;;;;;;76.50;39.80;;;12.70;34.10;;;;;;5005279;28;20395;-76
2022/03/29 08:32:27;;;;;;;72.00;41.43;;;12.90;33.90;;;;;;5001037;28;20800;-76
2022/03/29 08:34:53;;;;;;;73.67;40.60;;;13.10;32.70;;;;;;4995306;28;20393;-77
2022/03/29 08:37:19;;;;;;;72.33;40.57;;;13.40;31.50;;;;;;4994566;28;20483;-76
2022/03/29 08:39:44;;;;;;;68.15;39.15;;;13.50;31.50;;;;;;4996324;28;20390;-75
2022/03/29 08:42:13;;;;;;;71.10;40.28;;;13.50;30.50;;;;;;4962263;28;20467;-76
2022/03/29 08:44:40;;;;;;;68.32;39.13;;;13.50;30.70;;;;;;4977270;28;20407;-77
2022/03/29 08:47:07;;;;;;;65.72;40.03;;;13.50;30.10;;;;;;4978764;28;20463;-77
2022/03/29 08:49:34;;;;;;;69.25;40.83;;;13.50;31.70;;;;;;4980411;28;20392;-76
2022/03/29 08:52:03;;;;;;;73.82;42.50;;;13.50;30.40;;;;;;4979237;28;20476;-76
2022/03/29 08:54:29;;;;;;;76.32;41.00;;;13.50;30.60;;;;;;4994271;28;20413;-76
2022/03/29 08:56:55;;;;;;;74.90;42.77;;;13.70;30.00;;;;;;4999988;28;20394;-76
2022/03/29 08:59:21;;;;;;;74.63;42.88;;;13.70;30.90;;;;;;5001513;28;20432;-76
2022/03/29 09:01:47;;;;;;;74.47;41.05;;;14.00;29.50;;;;;;4983184;28;20740;-77
2022/03/29 09:04:15;;;;;;;71.13;41.67;;;13.90;28.70;;;;;;4998350;28;20398;-76
2022/03/29 09:06:50;;;;;;;76.45;44.20;;;13.70;29.30;;;;;;4995342;28;20506;-77
2022/03/29 09:09:24;;;;;;;75.03;42.00;;;13.60;29.90;;;;;;4994403;28;20410;-76
2022/03/29 09:11:51;;;;;;;78.80;43.08;;;13.40;30.50;;;;;;4978318;28;20411;-76
2022/03/29 09:14:18;;;;;;;76.83;42.20;;;13.40;30.60;;;;;;4975493;28;20444;-76
2022/03/29 09:16:44;;;;;;;80.13;43.25;;;13.20;31.20;;;;;;4957152;28;20388;-77
2022/03/29 09:19:10;;;;;;;74.38;42.60;;;12.90;32.40;;;;;;4974638;28;20472;-76
2022/03/29 09:21:44;;;;;;;80.75;43.58;;;12.90;32.70;;;;;;4973681;28;20392;-76
2022/03/29 09:24:16;;;;;;;75.38;43.22;;;12.90;32.90;;;;;;4957286;28;20455;-76
2022/03/29 09:26:51;;;;;;;69.07;40.65;;;12.90;33.00;;;;;;4974329;28;20396;-77
2022/03/29 09:29:22;;;;;;;75.72;43.22;;;13.10;32.40;;;;;;4974436;28;20461;-76
2022/03/29 09:32:03;;;;;;;79.00;44.35;;;13.40;31.90;;;;;;4975161;28;20412;-76
2022/03/29 09:34:29;;;;;;;80.18;43.83;;;13.80;30.40;;;;;;4974777;28;20419;-77
2022/03/29 09:36:55;;;;;;;73.50;43.50;;;13.80;29.50;;;;;;4974900;28;20384;-76
2022/03/29 09:39:39;;;;;;;71.20;43.13;;;14.00;29.50;;;;;;4974159;28;20392;-76
2022/03/29 09:42:13;;;;;;;80.32;45.22;;;14.10;28.60;;;;;;4956699;28;20442;-77
2022/03/29 09:44:41;;;;;;;82.43;47.10;;;14.40;28.00;;;;;;4977735;28;20388;-75
2022/03/29 09:47:09;;;;;;;89.72;47.80;;;14.70;26.60;;;;;;4978481;28;20400;-77
2022/03/29 09:49:54;;;;;;;83.85;49.17;;;14.50;26.70;;;;;;4975500;28;20395;-78
2022/03/29 09:52:30;;;;;;;91.88;51.17;;;14.20;28.00;;;;;;4973856;28;20408;-76
2022/03/29 09:55:15;;;;;;;93.22;50.45;;;14.30;28.30;;;;;;4975119;28;20419;-76
2022/03/29 09:57:44;;;;;;;94.45;53.20;;;14.40;27.20;;;;;;4956481;28;20427;-76
2022/03/29 10:00:16;;;;;;;89.22;52.00;;;14.50;27.90;;;;;;4956173;28;20396;-75
2022/03/29 10:02:45;;;;;;;100.50;53.10;;;14.40;27.50;;;;;;4975254;28;20380;-77
2022/03/29 10:05:11;;;;;;;93.97;49.63;;;14.40;27.70;;;;;;4973119;28;20448;-76
2022/03/29 10:07:47;;;;;;;94.80;53.30;;;14.00;28.30;;;;;;4956053;28;20396;-76
2022/03/29 10:10:13;;;;;;;94.38;51.90;;;14.00;29.30;;;;;;4973095;28;20395;-76
2022/03/29 10:12:39;;;;;;;107.75;54.33;;;14.20;28.30;;;;;;4955568;28;20416;-75
2022/03/29 10:15:06;;;;;;;101.65;53.40;;;14.10;28.00;;;;;;4973175;28;20514;-76
2022/03/29 10:17:32;;;;;;;103.53;55.80;;;14.10;28.50;;;;;;4974831;28;20392;-76
2022/03/29 10:20:00;;;;;;;102.00;52.63;;;14.10;29.20;;;;;;4958272;28;20719;-76
2022/03/29 10:22:25;;;;;;;113.40;55.92;;;14.30;27.80;;;;;;4979122;28;20406;-76
2022/03/29 10:24:53;;;;;;;105.35;54.97;;;14.60;27.70;;;;;;4981764;28;20493;-75
2022/03/29 10:27:19;;;;;;;102.70;53.13;;;14.70;25.90;;;;;;4981069;28;20395;-78
2022/03/29 10:29:46;;;;;;;101.30;53.95;;;14.30;27.30;;;;;;4986915;28;20400;-75
2022/03/29 10:32:27;;;;;;;103.88;51.50;;;14.20;27.80;;;;;;4985458;28;20411;-78
2022/03/29 10:35:09;;;;;;;103.55;53.47;;;13.80;28.80;;;;;;4983261;28;20392;-76
2022/03/29 10:37:54;;;;;;;103.50;53.67;;;14.00;28.40;;;;;;4977777;28;20391;-77
2022/03/29 10:40:40;;;;;;;108.82;53.60;;;13.90;28.40;;;;;;4977335;28;20388;-76
2022/03/29 10:43:32;;;;;;;104.10;49.97;;;13.60;29.00;;;;;;4977656;28;20483;-75
2022/03/29 10:45:58;;;;;;;105.15;53.35;;;13.40;30.00;;;;;;4982447;28;20965;-77
2022/03/29 10:48:24;;;;;;;99.85;53.70;;;13.30;31.30;;;;;;4981767;28;20765;-77
2022/03/29 10:50:56;;;;;;;104.80;54.83;;;13.70;30.50;;;;;;4984803;28;20396;-75
2022/03/29 10:53:27;;;;;;;101.30;52.80;;;14.20;28.70;;;;;;4987576;28;20435;-77
2022/03/29 10:56:17;;;;;;;98.72;54.22;;;14.40;26.80;;;;;;4966452;28;20402;-76
2022/03/29 10:59:04;;;;;;;102.93;51.90;;;14.40;27.40;;;;;;4976598;28;20384;-75
2022/03/29 11:01:30;;;;;;;102.43;52.90;;;14.50;26.10;;;;;;4976846;28;20392;-75
2022/03/29 11:04:07;;;;;;;103.80;52.83;;;14.10;26.50;;;;;;4944792;28;20404;-76
2022/03/29 11:06:33;;;;;;;103.05;53.58;;;13.70;28.70;;;;;;4977112;28;20384;-76
2022/03/29 11:09:15;;;;;;;110.93;54.25;;;13.70;28.50;;;;;;4978453;28;20454;-77
2022/03/29 11:11:51;;;;;;;118.10;60.00;;;13.70;28.80;;;;;;4977098;28;20407;-76
2022/03/29 11:14:35;;;;;;;115.45;56.20;;;13.80;28.90;;;;;;4980827;28;20423;-78
2022/03/29 11:17:01;;;;;;;122.22;61.25;;;13.50;28.80;;;;;;4976773;28;20486;-77
2022/03/29 11:19:48;;;;;;;117.95;57.53;;;13.20;31.20;;;;;;4976624;28;20396;-76
2022/03/29 11:22:29;;;;;;;122.22;61.33;;;13.10;31.40;;;;;;4975875;28;20388;-76
2022/03/29 11:25:06;;;;;;;124.32;61.58;;;13.00;32.00;;;;;;4977277;28;20400;-78
2022/03/29 11:27:35;;;;;;;123.90;61.20;;;13.20;31.80;;;;;;4980416;28;20398;-78
2022/03/29 11:30:04;;;;;;;125.28;61.40;;;13.40;31.10;;;;;;4959761;28;20787;-77
2022/03/29 11:32:32;;;;;;;124.15;62.88;;;13.60;30.00;;;;;;4975977;28;20408;-76
2022/03/29 11:34:58;;;;;;;119.40;61.92;;;13.60;29.40;;;;;;4975053;28;20807;-76
2022/03/29 11:37:41;;;;;;;116.82;60.55;;;13.80;29.80;;;;;;4976700;28;20392;-77
2022/03/29 11:40:09;;;;;;;110.60;56.05;;;13.90;29.40;;;;;;4975976;28;20388;-76
2022/03/29 11:42:41;;;;;;;102.77;55.30;;;13.80;27.90;;;;;;4977219;28;20396;-78
2022/03/29 11:45:07;;;;;;;104.07;55.65;;;14.00;27.60;;;;;;4975653;28;20458;-76
2022/03/29 11:47:33;;;;;;;109.30;58.15;;;14.20;27.10;;;;;;4976546;28;20396;-76
2022/03/29 11:50:02;;;;;;;102.70;53.53;;;14.30;27.10;;;;;;4977815;28;20396;-77
2022/03/29 11:52:38;;;;;;;104.82;57.33;;;14.50;25.80;;;;;;4974705;28;20470;-76
2022/03/29 11:55:25;;;;;;;98.82;54.92;;;14.80;25.70;;;;;;4976119;28;20885;-78
2022/03/29 11:57:52;;;;;;;113.95;58.40;;;15.10;24.50;;;;;;4982612;28;20401;-76
2022/03/29 12:00:23;;;;;;;110.57;58.33;;;15.30;23.80;;;;;;4978442;28;20780;-76
2022/03/29 12:02:49;;;;;;;106.90;58.17;;;15.60;22.70;;;;;;4978795;28;20470;-75
2022/03/29 12:05:27;;;;;;;112.00;57.83;;;15.70;22.10;;;;;;4964456;28;20411;-74
2022/03/29 12:07:58;;;;;;;115.85;55.72;;;15.90;21.90;;;;;;4977538;28;20430;-76
2022/03/29 12:10:29;;;;;;;125.53;60.35;;;15.50;22.30;;;;;;4957224;28;20396;-76
2022/03/29 12:12:55;;;;;;;122.72;58.53;;;15.50;23.00;;;;;;4956793;28;20414;-75
2022/03/29 12:15:22;;;;;;;129.10;60.83;;;15.00;23.80;;;;;;4974631;28;20495;-76
2022/03/29 12:20:45;;;;;;;135.38;59.33;;;15.20;24.10;;;;;;4974413;28;20400;-77
2022/03/29 12:23:29;;;;;;;144.77;67.43;;;15.10;23.50;;;;;;4956840;28;20404;-75
2022/03/29 12:25:58;;;;;;;147.82;69.07;;;15.10;23.70;;;;;;4973845;28;20447;-76
2022/03/29 12:28:26;;;;;;;148.88;69.03;;;15.50;23.40;;;;;;4956353;28;20388;-76
2022/03/29 12:30:54;;;;;;;154.00;67.70;;;15.50;23.10;;;;;;4975089;28;20475;-75
2022/03/29 12:33:22;;;;;;;148.25;65.82;;;15.40;22.40;;;;;;4978583;28;20396;-77
2022/03/29 12:36:00;;;;;;;151.68;66.25;;;15.10;23.30;;;;;;4974149;28;20411;-76
2022/03/29 12:38:26;;;;;;;151.15;69.13;;;14.70;24.10;;;;;;4975560;28;20886;-77
2022/03/29 12:40:57;;;;;;;139.30;64.07;;;14.50;25.30;;;;;;4974063;28;20460;-77
2022/03/29 12:43:27;;;;;;;147.68;67.50;;;14.40;25.30;;;;;;4973515;28;20395;-75